sensor_id;sensor_type;location;lat;lon;timestamp;P1;durP1;ratioP1;P2;durP2;ratioP2
30505;SDS011;17292;51.600;4.994;2022-10-13T00:02:17;5.40;;;3.40;;
30505;SDS011;17292;51.600;4.994;2022-10-13T00:04:43;5.95;;;2.88;;
30505;SDS011;17292;51.600;4.994;2022-10-13T00:07:10;7.07;;;3.30;;
30505;SDS011;17292;51.600;4.994;2022-10-13T00:09:36;6.40;;;3.22;;
30505;SDS011;17292;51.600;4.994;2022-10-13T00:12:02;7.53;;;3.50;;
30505;SDS011;17292;51.600;4.994;2022-10-13T00:14:28;6.85;;;3.63;;
30505;SDS011;17292;51.600;4.994;2022-10-13T00:16:54;8.13;;;3.22;;
30505;SDS011;17292;51.600;4.994;2022-10-13T00:19:21;6.05;;;2.95;;
30505;SDS011;17292;51.600;4.994;2022-10-13T00:21:47;4.68;;;2.90;;
30505;SDS011;17292;51.600;4.994;2022-10-13T00:24:13;7.28;;;2.85;;
30505;SDS011;17292;51.600;4.994;2022-10-13T00:26:40;5.40;;;3.00;;
30505;SDS011;17292;51.600;4.994;2022-10-13T00:29:06;5.90;;;3.10;;
30505;SDS011;17292;51.600;4.994;2022-10-13T00:31:32;10.88;;;3.20;;
30505;SDS011;17292;51.600;4.994;2022-10-13T00:33:59;7.38;;;3.38;;
30505;SDS011;17292;51.600;4.994;2022-10-13T00:36:26;9.55;;;3.45;;
30505;SDS011;17292;51.600;4.994;2022-10-13T00:38:52;7.32;;;3.35;;
30505;SDS011;17292;51.600;4.994;2022-10-13T00:41:19;6.00;;;3.13;;
30505;SDS011;17292;51.600;4.994;2022-10-13T00:43:53;3.85;;;3.10;;
30505;SDS011;17292;51.600;4.994;2022-10-13T00:46:21;5.93;;;2.95;;
30505;SDS011;17292;51.600;4.994;2022-10-13T00:48:49;5.10;;;3.05;;
30505;SDS011;17292;51.600;4.994;2022-10-13T00:51:17;6.93;;;3.38;;
30505;SDS011;17292;51.600;4.994;2022-10-13T00:53:44;4.30;;;3.00;;
30505;SDS011;17292;51.600;4.994;2022-10-13T00:56:12;5.47;;;2.85;;
30505;SDS011;17292;51.600;4.994;2022-10-13T00:58:38;6.45;;;2.70;;
30505;SDS011;17292;51.600;4.994;2022-10-13T01:01:05;7.55;;;3.10;;
30505;SDS011;17292;51.600;4.994;2022-10-13T01:03:31;6.68;;;2.90;;
30505;SDS011;17292;51.600;4.994;2022-10-13T01:05:59;5.72;;;3.17;;
30505;SDS011;17292;51.600;4.994;2022-10-13T01:08:26;5.22;;;2.95;;
30505;SDS011;17292;51.600;4.994;2022-10-13T01:11:06;4.70;;;2.30;;
30505;SDS011;17292;51.600;4.994;2022-10-13T01:31:48;4.03;;;2.60;;
30505;SDS011;17292;51.600;4.994;2022-10-13T01:34:18;4.15;;;2.75;;
30505;SDS011;17292;51.600;4.994;2022-10-13T01:36:49;4.15;;;2.65;;
30505;SDS011;17292;51.600;4.994;2022-10-13T01:39:21;5.05;;;2.65;;
30505;SDS011;17292;51.600;4.994;2022-10-13T01:41:50;3.67;;;2.35;;
30505;SDS011;17292;51.600;4.994;2022-10-13T01:44:28;4.55;;;2.67;;
30505;SDS011;17292;51.600;4.994;2022-10-13T01:46:55;4.93;;;3.13;;
30505;SDS011;17292;51.600;4.994;2022-10-13T01:49:26;7.10;;;2.63;;
30505;SDS011;17292;51.600;4.994;2022-10-13T01:51:53;4.30;;;2.70;;
30505;SDS011;17292;51.600;4.994;2022-10-13T01:54:20;5.93;;;3.13;;
30505;SDS011;17292;51.600;4.994;2022-10-13T01:56:55;5.72;;;2.95;;
30505;SDS011;17292;51.600;4.994;2022-10-13T01:59:22;4.82;;;2.92;;
30505;SDS011;17292;51.600;4.994;2022-10-13T02:04:36;6.75;;;2.92;;
30505;SDS011;17292;51.600;4.994;2022-10-13T02:09:57;4.28;;;3.00;;
30505;SDS011;17292;51.600;4.994;2022-10-13T02:12:28;4.05;;;2.67;;
30505;SDS011;17292;51.600;4.994;2022-10-13T02:14:56;5.43;;;2.55;;
30505;SDS011;17292;51.600;4.994;2022-10-13T02:17:24;4.80;;;2.45;;
30505;SDS011;17292;51.600;4.994;2022-10-13T02:19:51;5.80;;;3.17;;
30505;SDS011;17292;51.600;4.994;2022-10-13T02:22:18;5.22;;;2.85;;
30505;SDS011;17292;51.600;4.994;2022-10-13T02:24:45;5.05;;;2.50;;
30505;SDS011;17292;51.600;4.994;2022-10-13T02:27:12;6.15;;;2.70;;
30505;SDS011;17292;51.600;4.994;2022-10-13T02:29:48;4.00;;;2.40;;
30505;SDS011;17292;51.600;4.994;2022-10-13T02:32:15;5.03;;;3.03;;
30505;SDS011;17292;51.600;4.994;2022-10-13T02:34:41;4.15;;;2.75;;
30505;SDS011;17292;51.600;4.994;2022-10-13T02:37:07;3.70;;;2.58;;
30505;SDS011;17292;51.600;4.994;2022-10-13T02:39:33;5.05;;;2.88;;
30505;SDS011;17292;51.600;4.994;2022-10-13T02:41:59;5.20;;;2.92;;
30505;SDS011;17292;51.600;4.994;2022-10-13T02:44:26;6.07;;;3.08;;
30505;SDS011;17292;51.600;4.994;2022-10-13T02:46:52;4.25;;;2.65;;
30505;SDS011;17292;51.600;4.994;2022-10-13T02:49:18;5.57;;;3.10;;
30505;SDS011;17292;51.600;4.994;2022-10-13T02:51:44;4.20;;;2.80;;
30505;SDS011;17292;51.600;4.994;2022-10-13T02:54:11;3.47;;;2.85;;
30505;SDS011;17292;51.600;4.994;2022-10-13T02:56:37;5.88;;;2.88;;
30505;SDS011;17292;51.600;4.994;2022-10-13T02:59:03;4.70;;;2.50;;
30505;SDS011;17292;51.600;4.994;2022-10-13T03:01:29;4.28;;;2.75;;
30505;SDS011;17292;51.600;4.994;2022-10-13T03:03:56;3.55;;;2.60;;
30505;SDS011;17292;51.600;4.994;2022-10-13T03:06:22;4.05;;;2.70;;
30505;SDS011;17292;51.600;4.994;2022-10-13T03:08:48;4.60;;;2.83;;
30505;SDS011;17292;51.600;4.994;2022-10-13T03:11:14;3.80;;;2.83;;
30505;SDS011;17292;51.600;4.994;2022-10-13T03:13:40;4.22;;;2.83;;
30505;SDS011;17292;51.600;4.994;2022-10-13T03:16:07;6.13;;;2.78;;
30505;SDS011;17292;51.600;4.994;2022-10-13T03:18:33;2.60;;;2.40;;
30505;SDS011;17292;51.600;4.994;2022-10-13T03:21:00;4.85;;;2.80;;
30505;SDS011;17292;51.600;4.994;2022-10-13T03:23:27;5.32;;;3.17;;
30505;SDS011;17292;51.600;4.994;2022-10-13T03:25:53;7.68;;;2.85;;
30505;SDS011;17292;51.600;4.994;2022-10-13T03:28:20;3.67;;;2.47;;
30505;SDS011;17292;51.600;4.994;2022-10-13T03:30:47;3.63;;;2.55;;
30505;SDS011;17292;51.600;4.994;2022-10-13T03:33:13;4.65;;;2.78;;
30505;SDS011;17292;51.600;4.994;2022-10-13T03:35:39;5.53;;;3.08;;
30505;SDS011;17292;51.600;4.994;2022-10-13T03:38:06;4.60;;;2.60;;
30505;SDS011;17292;51.600;4.994;2022-10-13T03:40:34;5.18;;;2.90;;
30505;SDS011;17292;51.600;4.994;2022-10-13T03:43:00;4.53;;;3.00;;
30505;SDS011;17292;51.600;4.994;2022-10-13T03:45:26;4.45;;;2.65;;
30505;SDS011;17292;51.600;4.994;2022-10-13T03:47:53;5.13;;;3.10;;
30505;SDS011;17292;51.600;4.994;2022-10-13T03:50:19;5.30;;;2.97;;
30505;SDS011;17292;51.600;4.994;2022-10-13T03:52:45;4.53;;;2.70;;
30505;SDS011;17292;51.600;4.994;2022-10-13T03:55:11;5.43;;;2.83;;
30505;SDS011;17292;51.600;4.994;2022-10-13T03:57:37;3.28;;;2.40;;
30505;SDS011;17292;51.600;4.994;2022-10-13T04:00:04;5.05;;;3.08;;
30505;SDS011;17292;51.600;4.994;2022-10-13T04:02:34;2.83;;;2.53;;
30505;SDS011;17292;51.600;4.994;2022-10-13T04:05:01;3.70;;;2.67;;
30505;SDS011;17292;51.600;4.994;2022-10-13T04:07:27;4.72;;;2.80;;
30505;SDS011;17292;51.600;4.994;2022-10-13T04:09:53;6.97;;;2.83;;
30505;SDS011;17292;51.600;4.994;2022-10-13T04:12:19;3.47;;;2.88;;
30505;SDS011;17292;51.600;4.994;2022-10-13T04:14:45;7.30;;;3.67;;
30505;SDS011;17292;51.600;4.994;2022-10-13T04:17:12;7.10;;;4.28;;
30505;SDS011;17292;51.600;4.994;2022-10-13T04:19:38;9.52;;;3.83;;
30505;SDS011;17292;51.600;4.994;2022-10-13T04:22:04;7.90;;;3.47;;
30505;SDS011;17292;51.600;4.994;2022-10-13T04:24:30;5.88;;;3.45;;
30505;SDS011;17292;51.600;4.994;2022-10-13T04:26:57;7.85;;;3.90;;
30505;SDS011;17292;51.600;4.994;2022-10-13T04:29:23;5.30;;;3.53;;
30505;SDS011;17292;51.600;4.994;2022-10-13T04:31:49;6.25;;;3.65;;
30505;SDS011;17292;51.600;4.994;2022-10-13T04:34:15;6.68;;;3.53;;
30505;SDS011;17292;51.600;4.994;2022-10-13T04:36:41;4.47;;;3.20;;
30505;SDS011;17292;51.600;4.994;2022-10-13T04:39:07;6.38;;;3.42;;
30505;SDS011;17292;51.600;4.994;2022-10-13T04:41:34;5.18;;;2.90;;
30505;SDS011;17292;51.600;4.994;2022-10-13T04:44:00;4.68;;;2.85;;
30505;SDS011;17292;51.600;4.994;2022-10-13T04:46:26;5.50;;;2.78;;
30505;SDS011;17292;51.600;4.994;2022-10-13T04:48:52;4.88;;;2.70;;
30505;SDS011;17292;51.600;4.994;2022-10-13T04:51:20;4.93;;;2.85;;
30505;SDS011;17292;51.600;4.994;2022-10-13T04:53:47;6.70;;;2.83;;
30505;SDS011;17292;51.600;4.994;2022-10-13T04:56:14;4.25;;;2.67;;
30505;SDS011;17292;51.600;4.994;2022-10-13T04:58:42;7.65;;;2.78;;
30505;SDS011;17292;51.600;4.994;2022-10-13T05:01:11;4.07;;;2.80;;
30505;SDS011;17292;51.600;4.994;2022-10-13T05:03:38;7.03;;;2.83;;
30505;SDS011;17292;51.600;4.994;2022-10-13T05:06:04;6.28;;;2.83;;
30505;SDS011;17292;51.600;4.994;2022-10-13T05:08:30;3.35;;;2.67;;
30505;SDS011;17292;51.600;4.994;2022-10-13T05:10:59;4.10;;;2.50;;
30505;SDS011;17292;51.600;4.994;2022-10-13T05:13:25;3.90;;;2.38;;
30505;SDS011;17292;51.600;4.994;2022-10-13T05:15:52;4.35;;;2.60;;
30505;SDS011;17292;51.600;4.994;2022-10-13T05:18:18;8.45;;;2.75;;
30505;SDS011;17292;51.600;4.994;2022-10-13T05:20:44;6.38;;;3.08;;
30505;SDS011;17292;51.600;4.994;2022-10-13T05:23:11;6.43;;;3.28;;
30505;SDS011;17292;51.600;4.994;2022-10-13T05:25:38;4.13;;;2.53;;
30505;SDS011;17292;51.600;4.994;2022-10-13T05:28:05;6.28;;;2.83;;
30505;SDS011;17292;51.600;4.994;2022-10-13T05:30:31;10.63;;;3.35;;
30505;SDS011;17292;51.600;4.994;2022-10-13T05:32:57;8.20;;;2.65;;
30505;SDS011;17292;51.600;4.994;2022-10-13T05:35:24;7.80;;;3.00;;
30505;SDS011;17292;51.600;4.994;2022-10-13T05:37:51;8.57;;;3.05;;
30505;SDS011;17292;51.600;4.994;2022-10-13T05:40:17;8.30;;;3.03;;
30505;SDS011;17292;51.600;4.994;2022-10-13T05:42:46;6.43;;;3.00;;
30505;SDS011;17292;51.600;4.994;2022-10-13T05:45:12;8.43;;;3.45;;
30505;SDS011;17292;51.600;4.994;2022-10-13T05:47:38;8.23;;;3.20;;
30505;SDS011;17292;51.600;4.994;2022-10-13T05:50:04;8.95;;;2.78;;
30505;SDS011;17292;51.600;4.994;2022-10-13T05:52:31;8.18;;;3.15;;
30505;SDS011;17292;51.600;4.994;2022-10-13T05:54:59;12.35;;;2.72;;
30505;SDS011;17292;51.600;4.994;2022-10-13T05:57:47;11.52;;;3.08;;
30505;SDS011;17292;51.600;4.994;2022-10-13T06:00:15;14.55;;;4.25;;
30505;SDS011;17292;51.600;4.994;2022-10-13T06:02:51;14.02;;;3.90;;
30505;SDS011;17292;51.600;4.994;2022-10-13T06:05:18;18.58;;;4.60;;
30505;SDS011;17292;51.600;4.994;2022-10-13T06:07:45;18.17;;;4.80;;
30505;SDS011;17292;51.600;4.994;2022-10-13T06:10:12;12.80;;;4.20;;
30505;SDS011;17292;51.600;4.994;2022-10-13T06:12:39;15.40;;;3.60;;
30505;SDS011;17292;51.600;4.994;2022-10-13T06:15:06;10.82;;;3.72;;
30505;SDS011;17292;51.600;4.994;2022-10-13T06:17:34;10.98;;;3.83;;
30505;SDS011;17292;51.600;4.994;2022-10-13T06:20:01;17.13;;;3.70;;
30505;SDS011;17292;51.600;4.994;2022-10-13T06:22:30;9.65;;;3.50;;
30505;SDS011;17292;51.600;4.994;2022-10-13T06:24:56;20.65;;;3.47;;
30505;SDS011;17292;51.600;4.994;2022-10-13T06:27:23;9.25;;;3.22;;
30505;SDS011;17292;51.600;4.994;2022-10-13T06:29:49;11.48;;;3.08;;
30505;SDS011;17292;51.600;4.994;2022-10-13T06:32:15;14.90;;;3.05;;
30505;SDS011;17292;51.600;4.994;2022-10-13T06:34:41;9.23;;;3.30;;
30505;SDS011;17292;51.600;4.994;2022-10-13T06:37:07;11.10;;;2.58;;
30505;SDS011;17292;51.600;4.994;2022-10-13T06:39:34;13.95;;;3.17;;
30505;SDS011;17292;51.600;4.994;2022-10-13T06:42:00;11.00;;;3.22;;
30505;SDS011;17292;51.600;4.994;2022-10-13T06:44:26;14.38;;;3.08;;
30505;SDS011;17292;51.600;4.994;2022-10-13T06:46:53;9.90;;;2.90;;
30505;SDS011;17292;51.600;4.994;2022-10-13T06:49:19;11.40;;;3.45;;
30505;SDS011;17292;51.600;4.994;2022-10-13T06:51:45;9.02;;;3.30;;
30505;SDS011;17292;51.600;4.994;2022-10-13T06:54:11;7.70;;;3.10;;
30505;SDS011;17292;51.600;4.994;2022-10-13T06:56:37;8.88;;;2.65;;
30505;SDS011;17292;51.600;4.994;2022-10-13T06:59:04;10.63;;;3.17;;
30505;SDS011;17292;51.600;4.994;2022-10-13T07:01:30;8.25;;;2.92;;
30505;SDS011;17292;51.600;4.994;2022-10-13T07:03:56;4.97;;;2.80;;
30505;SDS011;17292;51.600;4.994;2022-10-13T07:06:23;12.80;;;2.97;;
30505;SDS011;17292;51.600;4.994;2022-10-13T07:08:49;15.05;;;3.63;;
30505;SDS011;17292;51.600;4.994;2022-10-13T07:11:15;26.00;;;5.10;;
30505;SDS011;17292;51.600;4.994;2022-10-13T07:13:42;14.43;;;4.28;;
30505;SDS011;17292;51.600;4.994;2022-10-13T07:16:09;33.72;;;6.07;;
30505;SDS011;17292;51.600;4.994;2022-10-13T07:18:35;21.27;;;5.65;;
30505;SDS011;17292;51.600;4.994;2022-10-13T07:21:03;28.10;;;5.20;;
30505;SDS011;17292;51.600;4.994;2022-10-13T07:23:30;21.15;;;5.35;;
30505;SDS011;17292;51.600;4.994;2022-10-13T07:25:57;19.02;;;5.20;;
30505;SDS011;17292;51.600;4.994;2022-10-13T07:28:24;26.33;;;5.35;;
30505;SDS011;17292;51.600;4.994;2022-10-13T07:30:50;27.33;;;5.13;;
30505;SDS011;17292;51.600;4.994;2022-10-13T07:33:17;24.13;;;5.43;;
30505;SDS011;17292;51.600;4.994;2022-10-13T07:35:43;20.67;;;4.35;;
30505;SDS011;17292;51.600;4.994;2022-10-13T07:38:10;15.85;;;4.07;;
30505;SDS011;17292;51.600;4.994;2022-10-13T07:40:36;19.25;;;3.92;;
30505;SDS011;17292;51.600;4.994;2022-10-13T07:43:04;16.17;;;3.75;;
30505;SDS011;17292;51.600;4.994;2022-10-13T07:45:30;13.82;;;3.97;;
30505;SDS011;17292;51.600;4.994;2022-10-13T07:47:56;11.55;;;3.83;;
30505;SDS011;17292;51.600;4.994;2022-10-13T07:50:22;12.35;;;3.83;;
30505;SDS011;17292;51.600;4.994;2022-10-13T07:52:49;9.48;;;3.03;;
30505;SDS011;17292;51.600;4.994;2022-10-13T07:55:15;25.95;;;3.95;;
30505;SDS011;17292;51.600;4.994;2022-10-13T07:57:41;34.15;;;5.20;;
30505;SDS011;17292;51.600;4.994;2022-10-13T08:00:08;18.85;;;4.72;;
30505;SDS011;17292;51.600;4.994;2022-10-13T08:02:35;21.88;;;5.78;;
30505;SDS011;17292;51.600;4.994;2022-10-13T08:05:01;18.90;;;5.22;;
30505;SDS011;17292;51.600;4.994;2022-10-13T08:07:27;21.60;;;5.30;;
30505;SDS011;17292;51.600;4.994;2022-10-13T08:09:54;18.63;;;5.63;;
30505;SDS011;17292;51.600;4.994;2022-10-13T08:12:20;19.30;;;5.97;;
30505;SDS011;17292;51.600;4.994;2022-10-13T08:14:49;20.77;;;4.63;;
30505;SDS011;17292;51.600;4.994;2022-10-13T08:17:15;18.13;;;4.07;;
30505;SDS011;17292;51.600;4.994;2022-10-13T08:19:42;18.95;;;4.38;;
30505;SDS011;17292;51.600;4.994;2022-10-13T08:22:08;15.10;;;3.45;;
30505;SDS011;17292;51.600;4.994;2022-10-13T08:24:35;13.00;;;3.25;;
30505;SDS011;17292;51.600;4.994;2022-10-13T08:27:01;10.18;;;3.35;;
30505;SDS011;17292;51.600;4.994;2022-10-13T08:29:28;12.63;;;3.60;;
30505;SDS011;17292;51.600;4.994;2022-10-13T08:31:54;9.98;;;2.90;;
30505;SDS011;17292;51.600;4.994;2022-10-13T08:34:24;11.60;;;3.58;;
30505;SDS011;17292;51.600;4.994;2022-10-13T08:36:50;13.15;;;3.72;;
30505;SDS011;17292;51.600;4.994;2022-10-13T08:39:18;20.92;;;5.10;;
30505;SDS011;17292;51.600;4.994;2022-10-13T08:41:45;13.63;;;3.80;;
30505;SDS011;17292;51.600;4.994;2022-10-13T08:46:49;28.92;;;5.43;;
30505;SDS011;17292;51.600;4.994;2022-10-13T08:49:19;30.50;;;5.20;;
30505;SDS011;17292;51.600;4.994;2022-10-13T08:51:45;17.92;;;4.07;;
30505;SDS011;17292;51.600;4.994;2022-10-13T08:54:12;31.38;;;4.70;;
30505;SDS011;17292;51.600;4.994;2022-10-13T08:56:40;28.55;;;4.55;;
30505;SDS011;17292;51.600;4.994;2022-10-13T08:59:08;15.07;;;3.75;;
30505;SDS011;17292;51.600;4.994;2022-10-13T09:01:38;29.60;;;4.80;;
30505;SDS011;17292;51.600;4.994;2022-10-13T09:06:55;25.92;;;3.88;;
30505;SDS011;17292;51.600;4.994;2022-10-13T09:09:23;13.85;;;3.50;;
30505;SDS011;17292;51.600;4.994;2022-10-13T09:11:49;13.73;;;3.63;;
30505;SDS011;17292;51.600;4.994;2022-10-13T09:14:26;15.77;;;3.60;;
30505;SDS011;17292;51.600;4.994;2022-10-13T09:16:53;24.52;;;4.13;;
30505;SDS011;17292;51.600;4.994;2022-10-13T09:19:27;11.45;;;3.15;;
30505;SDS011;17292;51.600;4.994;2022-10-13T09:21:55;14.95;;;3.38;;
30505;SDS011;17292;51.600;4.994;2022-10-13T09:24:23;17.58;;;3.78;;
30505;SDS011;17292;51.600;4.994;2022-10-13T09:26:50;13.77;;;3.45;;
30505;SDS011;17292;51.600;4.994;2022-10-13T09:29:26;21.63;;;4.05;;
30505;SDS011;17292;51.600;4.994;2022-10-13T09:31:54;13.93;;;3.40;;
30505;SDS011;17292;51.600;4.994;2022-10-13T09:34:32;14.95;;;3.72;;
30505;SDS011;17292;51.600;4.994;2022-10-13T09:36:59;19.63;;;3.55;;
30505;SDS011;17292;51.600;4.994;2022-10-13T09:39:27;16.33;;;3.13;;
30505;SDS011;17292;51.600;4.994;2022-10-13T09:42:07;13.18;;;3.50;;
30505;SDS011;17292;51.600;4.994;2022-10-13T09:44:34;19.63;;;3.60;;
30505;SDS011;17292;51.600;4.994;2022-10-13T09:47:01;14.50;;;3.22;;
30505;SDS011;17292;51.600;4.994;2022-10-13T09:57:38;17.42;;;3.97;;
30505;SDS011;17292;51.600;4.994;2022-10-13T10:02:32;13.30;;;3.50;;
30505;SDS011;17292;51.600;4.994;2022-10-13T10:05:04;22.63;;;4.30;;
30505;SDS011;17292;51.600;4.994;2022-10-13T10:10:58;14.60;;;3.88;;
30505;SDS011;17292;51.600;4.994;2022-10-13T10:12:53;13.68;;;3.22;;
30505;SDS011;17292;51.600;4.994;2022-10-13T10:15:20;23.17;;;3.67;;
30505;SDS011;17292;51.600;4.994;2022-10-13T10:17:59;16.00;;;4.45;;
30505;SDS011;17292;51.600;4.994;2022-10-13T10:30:26;19.50;;;3.65;;
30505;SDS011;17292;51.600;4.994;2022-10-13T10:43:54;22.83;;;5.97;;
30505;SDS011;17292;51.600;4.994;2022-10-13T10:45:56;20.15;;;4.90;;
30505;SDS011;17292;51.600;4.994;2022-10-13T10:48:24;31.70;;;5.65;;
30505;SDS011;17292;51.600;4.994;2022-10-13T10:50:51;19.30;;;4.30;;
30505;SDS011;17292;51.600;4.994;2022-10-13T10:56:05;19.25;;;3.97;;
30505;SDS011;17292;51.600;4.994;2022-10-13T10:58:41;14.48;;;3.45;;
30505;SDS011;17292;51.600;4.994;2022-10-13T11:16:27;12.57;;;3.38;;
30505;SDS011;17292;51.600;4.994;2022-10-13T11:18:57;16.17;;;3.67;;
30505;SDS011;17292;51.600;4.994;2022-10-13T11:32:50;21.92;;;3.95;;
30505;SDS011;17292;51.600;4.994;2022-10-13T11:37:41;15.05;;;3.65;;
30505;SDS011;17292;51.600;4.994;2022-10-13T11:47:57;17.52;;;3.50;;
30505;SDS011;17292;51.600;4.994;2022-10-13T11:50:47;18.00;;;3.55;;
30505;SDS011;17292;51.600;4.994;2022-10-13T11:53:18;12.48;;;3.60;;
30505;SDS011;17292;51.600;4.994;2022-10-13T11:55:50;19.73;;;3.85;;
30505;SDS011;17292;51.600;4.994;2022-10-13T11:58:21;16.63;;;3.75;;
30505;SDS011;17292;51.600;4.994;2022-10-13T12:00:55;19.08;;;3.58;;
30505;SDS011;17292;51.600;4.994;2022-10-13T12:03:31;17.80;;;3.75;;
30505;SDS011;17292;51.600;4.994;2022-10-13T12:06:00;15.80;;;4.13;;
30505;SDS011;17292;51.600;4.994;2022-10-13T12:08:27;27.92;;;4.80;;
30505;SDS011;17292;51.600;4.994;2022-10-13T12:10:54;23.92;;;5.03;;
30505;SDS011;17292;51.600;4.994;2022-10-13T12:13:25;13.68;;;3.33;;
30505;SDS011;17292;51.600;4.994;2022-10-13T12:16:05;15.90;;;4.50;;
30505;SDS011;17292;51.600;4.994;2022-10-13T12:18:32;20.13;;;4.00;;
30505;SDS011;17292;51.600;4.994;2022-10-13T12:21:19;18.33;;;3.60;;
30505;SDS011;17292;51.600;4.994;2022-10-13T12:23:47;18.75;;;3.78;;
30505;SDS011;17292;51.600;4.994;2022-10-13T12:26:23;23.02;;;3.58;;
30505;SDS011;17292;51.600;4.994;2022-10-13T12:28:56;18.58;;;3.95;;
30505;SDS011;17292;51.600;4.994;2022-10-13T12:31:24;17.63;;;3.78;;
30505;SDS011;17292;51.600;4.994;2022-10-13T12:33:52;23.00;;;3.50;;
30505;SDS011;17292;51.600;4.994;2022-10-13T12:36:20;17.48;;;3.78;;
30505;SDS011;17292;51.600;4.994;2022-10-13T12:38:51;17.02;;;3.72;;
30505;SDS011;17292;51.600;4.994;2022-10-13T12:41:18;20.45;;;3.30;;
30505;SDS011;17292;51.600;4.994;2022-10-13T12:43:47;15.82;;;3.42;;
30505;SDS011;17292;51.600;4.994;2022-10-13T12:49:03;28.02;;;3.75;;
30505;SDS011;17292;51.600;4.994;2022-10-13T12:51:29;25.15;;;3.90;;
30505;SDS011;17292;51.600;4.994;2022-10-13T12:53:55;17.95;;;4.07;;
30505;SDS011;17292;51.600;4.994;2022-10-13T12:56:26;24.48;;;4.25;;
30505;SDS011;17292;51.600;4.994;2022-10-13T12:58:53;22.00;;;4.47;;
30505;SDS011;17292;51.600;4.994;2022-10-13T13:01:24;26.58;;;3.90;;
30505;SDS011;17292;51.600;4.994;2022-10-13T13:04:01;20.15;;;3.67;;
30505;SDS011;17292;51.600;4.994;2022-10-13T13:06:40;19.45;;;4.63;;
30505;SDS011;17292;51.600;4.994;2022-10-13T13:09:32;21.25;;;4.43;;
30505;SDS011;17292;51.600;4.994;2022-10-13T13:19:32;46.17;;;7.25;;
30505;SDS011;17292;51.600;4.994;2022-10-13T13:21:59;38.85;;;6.28;;
30505;SDS011;17292;51.600;4.994;2022-10-13T13:24:25;28.55;;;5.88;;
30505;SDS011;17292;51.600;4.994;2022-10-13T13:26:51;36.70;;;5.20;;
30505;SDS011;17292;51.600;4.994;2022-10-13T13:29:17;29.23;;;5.68;;
30505;SDS011;17292;51.600;4.994;2022-10-13T13:31:44;32.40;;;5.38;;
30505;SDS011;17292;51.600;4.994;2022-10-13T13:34:10;33.70;;;6.00;;
30505;SDS011;17292;51.600;4.994;2022-10-13T13:36:42;37.38;;;5.40;;
30505;SDS011;17292;51.600;4.994;2022-10-13T13:39:13;25.05;;;5.55;;
30505;SDS011;17292;51.600;4.994;2022-10-13T13:41:43;24.92;;;4.05;;
30505;SDS011;17292;51.600;4.994;2022-10-13T13:44:09;30.38;;;5.25;;
30505;SDS011;17292;51.600;4.994;2022-10-13T13:46:35;24.75;;;5.43;;
30505;SDS011;17292;51.600;4.994;2022-10-13T13:49:02;32.85;;;5.90;;
30505;SDS011;17292;51.600;4.994;2022-10-13T13:51:28;20.65;;;4.90;;
30505;SDS011;17292;51.600;4.994;2022-10-13T13:53:54;22.88;;;3.95;;
30505;SDS011;17292;51.600;4.994;2022-10-13T13:56:21;21.15;;;4.20;;
30505;SDS011;17292;51.600;4.994;2022-10-13T13:58:47;25.27;;;4.10;;
30505;SDS011;17292;51.600;4.994;2022-10-13T14:01:14;17.52;;;4.60;;
30505;SDS011;17292;51.600;4.994;2022-10-13T14:03:40;20.23;;;4.18;;
30505;SDS011;17292;51.600;4.994;2022-10-13T14:06:06;18.90;;;4.22;;
30505;SDS011;17292;51.600;4.994;2022-10-13T14:08:33;17.15;;;4.32;;
30505;SDS011;17292;51.600;4.994;2022-10-13T14:11:00;19.33;;;4.07;;
30505;SDS011;17292;51.600;4.994;2022-10-13T14:13:30;18.27;;;4.07;;
30505;SDS011;17292;51.600;4.994;2022-10-13T14:15:56;17.55;;;3.63;;
30505;SDS011;17292;51.600;4.994;2022-10-13T14:18:23;22.10;;;3.97;;
30505;SDS011;17292;51.600;4.994;2022-10-13T14:20:49;17.92;;;4.35;;
30505;SDS011;17292;51.600;4.994;2022-10-13T14:23:15;24.38;;;4.20;;
30505;SDS011;17292;51.600;4.994;2022-10-13T14:25:42;23.25;;;4.65;;
30505;SDS011;17292;51.600;4.994;2022-10-13T14:28:08;17.63;;;4.38;;
30505;SDS011;17292;51.600;4.994;2022-10-13T14:30:37;16.17;;;3.88;;
30505;SDS011;17292;51.600;4.994;2022-10-13T14:33:03;15.90;;;4.10;;
30505;SDS011;17292;51.600;4.994;2022-10-13T14:35:30;25.80;;;4.53;;
30505;SDS011;17292;51.600;4.994;2022-10-13T14:37:56;26.83;;;4.65;;
30505;SDS011;17292;51.600;4.994;2022-10-13T14:40:22;23.80;;;4.40;;
30505;SDS011;17292;51.600;4.994;2022-10-13T14:42:48;24.75;;;4.13;;
30505;SDS011;17292;51.600;4.994;2022-10-13T14:45:15;20.40;;;4.20;;
30505;SDS011;17292;51.600;4.994;2022-10-13T14:47:42;22.92;;;4.18;;
30505;SDS011;17292;51.600;4.994;2022-10-13T14:50:08;28.80;;;4.75;;
30505;SDS011;17292;51.600;4.994;2022-10-13T14:52:35;14.07;;;4.13;;
30505;SDS011;17292;51.600;4.994;2022-10-13T14:55:01;23.02;;;3.70;;
30505;SDS011;17292;51.600;4.994;2022-10-13T14:57:27;26.50;;;4.35;;
30505;SDS011;17292;51.600;4.994;2022-10-13T14:59:54;28.15;;;5.78;;
30505;SDS011;17292;51.600;4.994;2022-10-13T15:02:20;19.05;;;5.85;;
30505;SDS011;17292;51.600;4.994;2022-10-13T15:04:46;20.20;;;6.47;;
30505;SDS011;17292;51.600;4.994;2022-10-13T15:07:12;28.65;;;7.18;;
30505;SDS011;17292;51.600;4.994;2022-10-13T15:09:39;18.95;;;6.95;;
30505;SDS011;17292;51.600;4.994;2022-10-13T15:12:05;28.33;;;7.72;;
30505;SDS011;17292;51.600;4.994;2022-10-13T15:14:31;22.98;;;7.13;;
30505;SDS011;17292;51.600;4.994;2022-10-13T15:16:57;19.02;;;7.18;;
30505;SDS011;17292;51.600;4.994;2022-10-13T15:19:23;24.23;;;6.75;;
30505;SDS011;17292;51.600;4.994;2022-10-13T15:21:49;19.85;;;7.18;;
30505;SDS011;17292;51.600;4.994;2022-10-13T15:24:17;21.80;;;6.97;;
30505;SDS011;17292;51.600;4.994;2022-10-13T15:26:43;25.88;;;7.03;;
30505;SDS011;17292;51.600;4.994;2022-10-13T15:29:09;21.05;;;6.07;;
30505;SDS011;17292;51.600;4.994;2022-10-13T15:31:35;26.67;;;6.85;;
30505;SDS011;17292;51.600;4.994;2022-10-13T15:34:02;27.85;;;6.55;;
30505;SDS011;17292;51.600;4.994;2022-10-13T15:36:28;22.52;;;5.93;;
30505;SDS011;17292;51.600;4.994;2022-10-13T15:38:54;25.83;;;6.35;;
30505;SDS011;17292;51.600;4.994;2022-10-13T15:41:20;21.85;;;5.85;;
30505;SDS011;17292;51.600;4.994;2022-10-13T15:43:47;23.35;;;6.35;;
30505;SDS011;17292;51.600;4.994;2022-10-13T15:46:14;23.13;;;5.93;;
30505;SDS011;17292;51.600;4.994;2022-10-13T15:48:51;17.92;;;5.63;;
30505;SDS011;17292;51.600;4.994;2022-10-13T15:51:20;14.10;;;4.75;;
30505;SDS011;17292;51.600;4.994;2022-10-13T15:53:46;17.63;;;5.20;;
30505;SDS011;17292;51.600;4.994;2022-10-13T15:56:13;22.00;;;5.05;;
30505;SDS011;17292;51.600;4.994;2022-10-13T15:58:39;20.27;;;4.60;;
30505;SDS011;17292;51.600;4.994;2022-10-13T16:01:06;26.42;;;5.30;;
30505;SDS011;17292;51.600;4.994;2022-10-13T16:03:33;18.15;;;4.72;;
30505;SDS011;17292;51.600;4.994;2022-10-13T16:06:01;20.30;;;4.65;;
30505;SDS011;17292;51.600;4.994;2022-10-13T16:08:28;16.55;;;4.13;;
30505;SDS011;17292;51.600;4.994;2022-10-13T16:10:54;17.58;;;4.72;;
30505;SDS011;17292;51.600;4.994;2022-10-13T16:13:20;15.93;;;4.18;;
30505;SDS011;17292;51.600;4.994;2022-10-13T16:15:59;20.38;;;4.22;;
30505;SDS011;17292;51.600;4.994;2022-10-13T16:18:32;15.63;;;4.60;;
30505;SDS011;17292;51.600;4.994;2022-10-13T16:20:59;19.70;;;4.05;;
30505;SDS011;17292;51.600;4.994;2022-10-13T16:23:25;18.83;;;4.00;;
30505;SDS011;17292;51.600;4.994;2022-10-13T16:25:51;12.57;;;4.07;;
30505;SDS011;17292;51.600;4.994;2022-10-13T16:28:18;18.50;;;4.35;;
30505;SDS011;17292;51.600;4.994;2022-10-13T16:30:44;19.77;;;4.30;;
30505;SDS011;17292;51.600;4.994;2022-10-13T16:33:10;13.90;;;3.63;;
30505;SDS011;17292;51.600;4.994;2022-10-13T16:35:37;18.58;;;4.50;;
30505;SDS011;17292;51.600;4.994;2022-10-13T16:38:03;13.13;;;3.72;;